LOWG/GRZ METAR and TAF weather

Enter ICAO airport designator
Station Type Date Time Source
LOWG METAR 2019/06/17 14:20 UTC NOAA

LOWG 171420Z 21006KT 170V250 9999 FEW040CB SCT065 BKN110 24/15 Q1018 NOSIG


Station Type Date Time Source
LOWG Decoded METAR 2019/06/17 14:20 UTC NOAA

Graz-Thalerhof-Flughafen, Austria (LOWG) 47-00N 015-26E 347M
Jun 17, 2019 - 10:20 AM EDT / 2019.06.17 1420 UTC
Wind: from the SSW (210 degrees) at 7 MPH (6 KT) (direction variable):0
Visibility: greater than 7 mile(s):0
Sky conditions: mostly cloudy
Weather: Cumulonimbus clouds observed
Temperature: 75 F (24 C)
Dew Point: 59 F (15 C)
Relative Humidity: 57%
Pressure (altimeter): 30.06 in. Hg (1018 hPa)
ob: LOWG 171420Z 21006KT 170V250 9999 FEW040CB SCT065 BKN110 24/15 Q1018 NOSIG
cycle: 14

Station Type Date Time Source
LOWG TAF 2019/06/17 12:21 UTC NOAA

TAF LOWG 171115Z 1712/1812 12005KT 9999 FEW040 SCT080 BKN300 TX25/1712Z TN17/1803Z
TEMPO 1712/1722 13007KT FEW050CB BKN080 PROB30
TEMPO 1713/1716 VRB15KT TS FEW040CB BKN060 PROB30
TEMPO 1807/1809 05008KT SHRA FEW040TCU BKN050
TEMPO 1810/1812 FEW030CB BKN090

Example: see airport list